createdAt,value
2023-02-02T00:01:31.399Z,99943.19
2023-02-02T00:04:00.309Z,99940.88
2023-02-02T00:06:31.853Z,99956.94
2023-02-02T00:09:01.841Z,99951.84
2023-02-02T00:11:30.060Z,99960.28
2023-02-02T00:13:58.155Z,99951.13
2023-02-02T00:16:38.024Z,99965.25
2023-02-02T00:19:08.090Z,99962.91
2023-02-02T00:21:38.838Z,99960.47
2023-02-02T00:24:07.915Z,99963.28
2023-02-02T00:26:36.933Z,99954.66
2023-02-02T00:29:06.117Z,99950.13
2023-02-02T00:31:34.599Z,99945.00
2023-02-02T00:34:02.751Z,99910.75
2023-02-02T00:36:30.895Z,99874.94
2023-02-02T00:39:00.354Z,99870.91
2023-02-02T00:41:28.437Z,99872.63
2023-02-02T00:44:10.531Z,99888.09
2023-02-02T00:46:41.155Z,99870.41
2023-02-02T00:49:10.118Z,99882.09
2023-02-02T00:51:38.376Z,99892.59
2023-02-02T00:54:07.989Z,99916.47
2023-02-02T00:56:36.077Z,99926.34
2023-02-02T00:59:04.261Z,99923.78
2023-02-02T01:01:32.370Z,99931.06
2023-02-02T01:04:01.562Z,99929.34
2023-02-02T01:06:29.852Z,99933.25
2023-02-02T01:08:57.885Z,99927.88
2023-02-02T01:11:27.493Z,99919.13
2023-02-02T01:13:55.546Z,99915.06
2023-02-02T01:16:24.829Z,99901.81
2023-02-02T01:18:53.559Z,99903.75
2023-02-02T01:21:22.051Z,99911.06
2023-02-02T01:23:50.340Z,99901.41
2023-02-02T01:26:19.120Z,99892.06
2023-02-02T01:28:48.687Z,99925.88
2023-02-02T01:31:18.928Z,99930.53
2023-02-02T01:33:48.946Z,99935.13
2023-02-02T01:36:18.915Z,99924.59
2023-02-02T01:38:47.179Z,99930.22
2023-02-02T01:41:19.212Z,99930.22
2023-02-02T01:43:58.159Z,99917.03
2023-02-02T01:46:30.422Z,99916.31
2023-02-02T01:49:03.621Z,99913.88
2023-02-02T01:51:37.564Z,99900.34
2023-02-02T01:54:08.895Z,99883.91
2023-02-02T01:56:43.326Z,99886.47
2023-02-02T01:59:15.883Z,99896.44
2023-02-02T02:01:45.084Z,99888.63
2023-02-02T02:04:13.482Z,99872.69
2023-02-02T02:06:42.571Z,99866.63
2023-02-02T02:09:14.043Z,99869.50
2023-02-02T02:11:42.177Z,99860.13
2023-02-02T02:14:30.389Z,99861.84
2023-02-02T02:17:26.606Z,99851.25
2023-02-02T02:20:43.629Z,99857.78
2023-02-02T02:24:03.017Z,99863.25
2023-02-02T02:27:05.371Z,99863.38
2023-02-02T02:30:04.794Z,99840.72
2023-02-02T02:32:42.140Z,99855.81
2023-02-02T02:35:18.736Z,99867.47
2023-02-02T02:37:51.161Z,99897.03
2023-02-02T02:40:27.094Z,99909.69
2023-02-02T02:42:59.027Z,99899.19
2023-02-02T02:45:29.874Z,99891.28
2023-02-02T02:47:59.562Z,99894.81
2023-02-02T02:50:27.646Z,99892.25
2023-02-02T02:53:03.630Z,99897.72
2023-02-02T02:55:44.170Z,99904.16
2023-02-02T02:58:18.219Z,99896.25
2023-02-02T03:01:00.187Z,99904.47
2023-02-02T03:03:46.806Z,99892.19
2023-02-02T03:06:22.239Z,99894.00
2023-02-02T03:08:55.390Z,99897.66
2023-02-02T03:11:23.871Z,99889.63
2023-02-02T03:13:51.966Z,99892.38
2023-02-02T03:16:20.018Z,99880.13
2023-02-02T03:18:49.515Z,99879.69
2023-02-02T03:21:17.802Z,99870.72
2023-02-02T03:23:45.989Z,99885.13
2023-02-02T03:26:14.208Z,99892.44
2023-02-02T03:28:42.855Z,99892.72
2023-02-02T03:31:11.296Z,99897.41
2023-02-02T03:33:40.054Z,99889.63
2023-02-02T03:36:10.461Z,99896.94
2023-02-02T03:38:38.566Z,99877.31
2023-02-02T03:41:07.122Z,99888.56
2023-02-02T03:43:35.199Z,99880.50
2023-02-02T03:46:05.320Z,99876.00
2023-02-02T03:48:36.750Z,99889.53
2023-02-02T03:51:11.640Z,99888.69
2023-02-02T03:53:40.061Z,99894.03
2023-02-02T03:56:08.489Z,99893.53
2023-02-02T03:58:36.676Z,99890.00
2023-02-02T04:01:05.937Z,99869.66
2023-02-02T04:03:34.344Z,99862.09
2023-02-02T04:06:02.695Z,99868.56
2023-02-02T04:08:32.467Z,99869.84
2023-02-02T04:11:00.675Z,99868.28
2023-02-02T04:13:28.712Z,99874.09
2023-02-02T04:16:00.878Z,99868.94
2023-02-02T04:18:30.237Z,99882.47
2023-02-02T04:20:59.507Z,99880.16
2023-02-02T04:23:28.461Z,99878.53
2023-02-02T04:25:58.668Z,99897.19
2023-02-02T04:28:27.974Z,99903.59
2023-02-02T04:30:57.377Z,99901.06
2023-02-02T04:33:26.877Z,99908.47
2023-02-02T04:35:55.053Z,99911.16
2023-02-02T04:38:23.288Z,99896.16
2023-02-02T04:40:51.293Z,99912.63
2023-02-02T04:43:20.698Z,99914.84
2023-02-02T04:45:50.004Z,99915.13
2023-02-02T04:48:18.075Z,99909.19
2023-02-02T04:50:46.654Z,99923.13
2023-02-02T04:53:14.738Z,99923.13
2023-02-02T04:55:43.008Z,99919.63
2023-02-02T04:58:11.088Z,99922.94
2023-02-02T05:00:40.679Z,99923.81
2023-02-02T05:03:08.766Z,99931.84
2023-02-02T05:05:36.798Z,99936.25
2023-02-02T05:08:05.191Z,99933.69
2023-02-02T05:10:33.216Z,99943.44
2023-02-02T05:13:01.319Z,99944.38
2023-02-02T05:15:29.349Z,99946.38
2023-02-02T05:17:59.009Z,99954.53
2023-02-02T05:20:27.198Z,99957.16
2023-02-02T05:22:55.243Z,99968.13
2023-02-02T05:25:23.639Z,99966.66
2023-02-02T05:27:52.013Z,99983.47
2023-02-02T05:30:20.326Z,99990.63
2023-02-02T05:32:48.656Z,99983.06
2023-02-02T05:35:18.257Z,99990.31
2023-02-02T05:37:46.819Z,99998.84
2023-02-02T05:40:14.915Z,99998.47
2023-02-02T05:42:42.947Z,100008.13
2023-02-02T05:45:12.231Z,100003.59
2023-02-02T05:47:40.311Z,99992.00
2023-02-02T05:50:09.520Z,100000.44
2023-02-02T05:52:41.335Z,99984.31
2023-02-02T05:55:11.141Z,100004.09
2023-02-02T05:57:39.302Z,100004.38
2023-02-02T06:00:08.650Z,99991.19
2023-02-02T06:02:36.681Z,99983.63
2023-02-02T06:05:05.061Z,99995.38
2023-02-02T06:07:33.135Z,99994.03
2023-02-02T06:10:02.634Z,99991.47
2023-02-02T06:12:31.667Z,99995.41
2023-02-02T06:14:59.771Z,99999.31
2023-02-02T06:17:28.705Z,99991.03
2023-02-02T06:19:56.841Z,100000.78
2023-02-02T06:22:25.098Z,99999.34
2023-02-02T06:24:53.468Z,99999.75
2023-02-02T06:27:23.100Z,99991.19
2023-02-02T06:29:51.257Z,99991.59
2023-02-02T06:32:19.382Z,99981.19
2023-02-02T06:34:47.489Z,99976.94
2023-02-02T06:37:15.607Z,99977.44
2023-02-02T06:39:43.725Z,99977.94
2023-02-02T06:42:20.701Z,99984.53
2023-02-02T06:44:51.311Z,99989.19
2023-02-02T06:47:19.465Z,99985.78
2023-02-02T06:49:47.674Z,99989.66
2023-02-02T06:52:15.767Z,99986.22
2023-02-02T06:54:43.880Z,99996.34
2023-02-02T06:57:11.975Z,99992.31
2023-02-02T06:59:41.044Z,99990.88
2023-02-02T07:02:13.481Z,100007.94
2023-02-02T07:04:41.699Z,100016.34
2023-02-02T07:07:09.899Z,100020.13
2023-02-02T07:09:38.107Z,100020.97
2023-02-02T07:12:06.723Z,100020.84
2023-02-02T07:14:34.875Z,100030.25
2023-02-02T07:17:02.971Z,100035.25
2023-02-02T07:19:33.588Z,100039.66
2023-02-02T07:22:01.634Z,100048.69
2023-02-02T07:24:29.985Z,100048.94
2023-02-02T07:26:58.892Z,100051.00
2023-02-02T07:29:27.093Z,100046.47
2023-02-02T07:31:55.249Z,100052.69
2023-02-02T07:34:23.374Z,100042.06
2023-02-02T07:36:52.887Z,100049.47
2023-02-02T07:39:21.115Z,100058.25
2023-02-02T07:41:49.623Z,100053.94
2023-02-02T07:44:18.048Z,100048.88
2023-02-02T07:46:47.519Z,100052.63
2023-02-02T07:49:17.439Z,100062.63
2023-02-02T07:51:47.911Z,100054.81
2023-02-02T07:54:17.551Z,100054.28
2023-02-02T07:56:45.676Z,100052.66
2023-02-02T07:59:14.060Z,100049.44
2023-02-02T08:01:42.347Z,100050.47
2023-02-02T08:04:10.568Z,100051.91
2023-02-02T08:06:40.001Z,100049.97
2023-02-02T08:09:10.284Z,100045.44
2023-02-02T08:11:39.891Z,100045.69
2023-02-02T08:14:08.464Z,100053.66
2023-02-02T08:16:36.634Z,100049.34
2023-02-02T08:19:05.173Z,100052.19
2023-02-02T08:21:34.516Z,100056.13
2023-02-02T08:24:04.564Z,100049.28
2023-02-02T08:26:33.146Z,100026.63
2023-02-02T08:29:04.799Z,100020.91
2023-02-02T08:31:34.902Z,100025.44
2023-02-02T08:34:03.081Z,100031.19
2023-02-02T08:36:31.867Z,100020.84
2023-02-02T08:39:03.265Z,100024.03
2023-02-02T08:41:32.530Z,100012.06
2023-02-02T08:44:02.414Z,100032.25
2023-02-02T08:46:32.454Z,100024.56
2023-02-02T08:49:00.600Z,100027.06
2023-02-02T08:51:28.941Z,100044.41
2023-02-02T08:53:57.487Z,100043.09
2023-02-02T08:56:25.631Z,100048.13
2023-02-02T08:58:55.369Z,100071.81
2023-02-02T09:01:26.439Z,100083.06
2023-02-02T09:03:55.198Z,100061.34
2023-02-02T09:06:27.579Z,100071.59
2023-02-02T09:08:56.203Z,100079.31
2023-02-02T09:11:24.457Z,100077.97
2023-02-02T09:13:56.057Z,100088.34
2023-02-02T09:16:27.302Z,100085.06
2023-02-02T09:18:58.561Z,100087.28
2023-02-02T09:21:27.507Z,100108.00
2023-02-02T09:23:56.374Z,100086.16
2023-02-02T09:26:26.404Z,100098.97
2023-02-02T09:28:56.788Z,100101.91
2023-02-02T09:31:27.481Z,100107.38
2023-02-02T09:33:56.468Z,100101.50
2023-02-02T09:36:26.932Z,100100.88
2023-02-02T09:38:55.334Z,100100.88
2023-02-02T09:41:59.739Z,100079.03
2023-02-02T09:44:45.421Z,100094.03
2023-02-02T09:47:20.833Z,100099.75
2023-02-02T09:49:58.631Z,100102.69
2023-02-02T09:52:31.044Z,100108.28
2023-02-02T09:55:04.429Z,100105.00
2023-02-02T09:57:39.200Z,100107.06
2023-02-02T10:00:26.918Z,100094.72
2023-02-02T10:03:00.919Z,100095.94
2023-02-02T10:05:37.491Z,100115.94
2023-02-02T10:08:08.898Z,100100.31
2023-02-02T10:10:42.144Z,100115.44
2023-02-02T10:13:13.880Z,100123.72
2023-02-02T10:15:51.816Z,100106.88
2023-02-02T10:18:28.385Z,100114.06
2023-02-02T10:21:00.547Z,100109.91
2023-02-02T10:23:32.120Z,100118.31
2023-02-02T10:26:06.773Z,100101.34
2023-02-02T10:28:45.317Z,100078.81
2023-02-02T10:31:22.886Z,100092.09
2023-02-02T10:34:03.427Z,100094.69
2023-02-02T10:36:43.638Z,100095.94
2023-02-02T10:39:25.646Z,100093.50
2023-02-02T10:42:04.950Z,100097.31
2023-02-02T10:44:40.476Z,100089.75
2023-02-02T10:47:15.600Z,100081.22
2023-02-02T10:49:45.143Z,100084.28
2023-02-02T10:52:18.843Z,100085.88
2023-02-02T10:54:57.666Z,100082.81
2023-02-02T10:57:37.999Z,100077.22
2023-02-02T11:00:16.976Z,100070.78
2023-02-02T11:02:53.887Z,100082.00
2023-02-02T11:05:43.246Z,100085.53
2023-02-02T11:08:15.092Z,100079.19
2023-02-02T11:10:45.710Z,100086.03
2023-02-02T11:13:20.489Z,100090.56
2023-02-02T11:15:48.755Z,100124.22
2023-02-02T11:18:29.630Z,100088.72
2023-02-02T11:20:59.205Z,100091.75
2023-02-02T11:23:29.310Z,100111.06
2023-02-02T11:26:05.333Z,100097.75
2023-02-02T11:28:36.697Z,100109.81
2023-02-02T11:31:05.322Z,100099.94
2023-02-02T11:33:35.488Z,100096.28
2023-02-02T11:36:07.073Z,100090.78
2023-02-02T11:38:35.225Z,100094.44
2023-02-02T11:41:07.037Z,100103.59
2023-02-02T11:43:41.293Z,100118.00
2023-02-02T11:46:19.972Z,100108.50
2023-02-02T11:48:54.795Z,100120.50
2023-02-02T11:51:26.965Z,100111.00
2023-02-02T11:54:04.039Z,100118.53
2023-02-02T11:56:32.687Z,100119.66
2023-02-02T11:59:03.893Z,100124.38
2023-02-02T12:01:34.320Z,100125.59
2023-02-02T12:04:04.533Z,100123.16
2023-02-02T12:06:38.462Z,100128.88
2023-02-02T12:09:13.846Z,100116.81
2023-02-02T12:11:52.258Z,100128.59
2023-02-02T12:14:33.510Z,100123.47
2023-02-02T12:17:11.169Z,100119.41
2023-02-02T12:19:57.110Z,100115.16
2023-02-02T12:22:42.088Z,100127.84
2023-02-02T12:25:30.534Z,100125.47
2023-02-02T12:28:10.501Z,100110.50
2023-02-02T12:30:47.837Z,100122.31
2023-02-02T12:33:30.238Z,100121.69
2023-02-02T12:36:11.840Z,100114.00
2023-02-02T12:39:00.464Z,100133.59
2023-02-02T12:41:41.060Z,100121.31
2023-02-02T12:44:19.153Z,100124.22
2023-02-02T12:47:06.103Z,100114.56
2023-02-02T12:49:54.153Z,100112.38
2023-02-02T12:52:34.884Z,100103.56
2023-02-02T12:55:22.291Z,100111.97
2023-02-02T12:57:59.664Z,100118.16
2023-02-02T13:00:53.223Z,100121.09
2023-02-02T13:03:38.987Z,100131.94
2023-02-02T13:09:15.174Z,100119.81
2023-02-02T13:11:50.825Z,100137.00
2023-02-02T13:14:25.999Z,100123.19
2023-02-02T13:16:57.350Z,100132.81
2023-02-02T13:19:33.771Z,100141.94
2023-02-02T13:22:04.195Z,100147.41
2023-02-02T13:24:35.710Z,100144.84
2023-02-02T13:27:08.851Z,100152.03
2023-02-02T13:29:47.919Z,100150.41
2023-02-02T13:32:22.228Z,100145.16
2023-02-02T13:34:56.526Z,100147.22
2023-02-02T13:37:32.133Z,100133.31
2023-02-02T13:40:04.848Z,100146.81
2023-02-02T13:42:42.097Z,100139.72
2023-02-02T13:45:33.825Z,100142.75
2023-02-02T13:48:12.297Z,100150.84
2023-02-02T13:50:54.088Z,100141.13
2023-02-02T13:53:43.236Z,100135.38
2023-02-02T13:56:31.118Z,100153.03
2023-02-02T13:59:28.047Z,100144.44
2023-02-02T14:01:59.302Z,100158.81
2023-02-02T14:04:30.457Z,100153.47
2023-02-02T14:07:07.261Z,100151.75
2023-02-02T14:09:38.525Z,100158.94
2023-02-02T14:12:10.698Z,100157.22
2023-02-02T14:14:47.128Z,100160.88
2023-02-02T14:17:48.731Z,100150.47
2023-02-02T14:20:47.761Z,100145.78
2023-02-02T14:23:51.454Z,100160.13
2023-02-02T14:26:40.307Z,100159.34
2023-02-02T14:29:37.217Z,100162.16
2023-02-02T14:32:34.749Z,100160.31
2023-02-02T14:35:56.286Z,100166.53
2023-02-02T14:38:46.422Z,100174.44
2023-02-02T14:41:39.919Z,100176.28
2023-02-02T14:44:07.171Z,100159.22
2023-02-02T14:46:39.386Z,100163.66
2023-02-02T14:49:16.707Z,100167.38
2023-02-02T14:51:52.381Z,100179.66
2023-02-02T14:54:28.255Z,100153.50
2023-02-02T14:57:00.431Z,100168.53
2023-02-02T14:59:33.654Z,100182.63
2023-02-02T15:02:03.880Z,100184.94
2023-02-02T15:04:33.397Z,100171.53
2023-02-02T15:07:34.557Z,100186.94
2023-02-02T15:10:02.918Z,100179.53
2023-02-02T15:12:36.184Z,100172.56
2023-02-02T15:15:16.350Z,100182.09
2023-02-02T15:17:56.014Z,100188.44
2023-02-02T15:20:29.663Z,100189.41
2023-02-02T15:23:02.879Z,100188.03
2023-02-02T15:25:34.051Z,100194.13
2023-02-02T15:28:10.080Z,100191.09
2023-02-02T15:30:42.927Z,100198.88
2023-02-02T15:33:24.467Z,100203.63
2023-02-02T15:35:54.961Z,100200.31
2023-02-02T15:38:32.640Z,100214.69
2023-02-02T15:41:06.215Z,100228.59
2023-02-02T15:43:36.706Z,100217.88
2023-02-02T15:46:08.589Z,100218.94
2023-02-02T15:48:36.823Z,100234.41
2023-02-02T15:51:16.021Z,100223.06
2023-02-02T15:53:51.708Z,100228.03
2023-02-02T15:56:29.309Z,100235.31
2023-02-02T15:59:00.577Z,100226.75
2023-02-02T16:01:34.157Z,100245.88
2023-02-02T16:04:14.870Z,100229.13
2023-02-02T16:06:45.486Z,100238.16
2023-02-02T16:09:23.987Z,100234.00
2023-02-02T16:11:53.066Z,100247.59
2023-02-02T16:14:21.796Z,100240.78
2023-02-02T16:16:50.482Z,100242.91
2023-02-02T16:19:21.925Z,100246.56
2023-02-02T16:21:54.706Z,100254.84
2023-02-02T16:24:25.879Z,100259.69
2023-02-02T16:26:56.567Z,100270.41
2023-02-02T16:29:27.426Z,100270.63
2023-02-02T16:31:57.065Z,100264.50
2023-02-02T16:34:47.338Z,100277.38
2023-02-02T16:37:23.238Z,100283.69
2023-02-02T16:39:51.602Z,100280.38
2023-02-02T16:42:28.143Z,100289.41
2023-02-02T16:44:57.393Z,100289.50
2023-02-02T16:47:39.862Z,100287.13
2023-02-02T16:50:28.707Z,100289.06
2023-02-02T16:53:01.751Z,100300.88
2023-02-02T16:55:48.811Z,100310.84
2023-02-02T16:58:20.927Z,100318.09
2023-02-02T17:01:08.800Z,100322.69
2023-02-02T17:03:50.414Z,100322.91
2023-02-02T17:06:18.933Z,100312.44
2023-02-02T17:08:48.737Z,100319.50
2023-02-02T17:11:24.750Z,100321.09
2023-02-02T17:13:54.276Z,100318.88
2023-02-02T17:16:24.248Z,100319.94
2023-02-02T17:18:53.105Z,100325.50
2023-02-02T17:21:25.450Z,100319.50
2023-02-02T17:23:55.256Z,100327.63
2023-02-02T17:26:23.485Z,100326.84
2023-02-02T17:28:56.848Z,100326.94
2023-02-02T17:31:25.254Z,100330.16
2023-02-02T17:33:53.763Z,100331.94
2023-02-02T17:36:22.010Z,100336.38
2023-02-02T17:38:50.213Z,100324.00
2023-02-02T17:41:19.638Z,100343.31
2023-02-02T17:43:47.777Z,100352.38
2023-02-02T17:46:16.214Z,100333.16
2023-02-02T17:48:44.369Z,100340.63
2023-02-02T17:51:16.039Z,100348.75
2023-02-02T17:53:45.235Z,100361.59
2023-02-02T17:56:13.545Z,100357.69
2023-02-02T17:58:43.342Z,100356.78
2023-02-02T18:01:13.218Z,100351.56
2023-02-02T18:03:44.874Z,100353.53
2023-02-02T18:06:13.113Z,100360.25
2023-02-02T18:08:41.324Z,100341.31
2023-02-02T18:11:13.313Z,100352.69
2023-02-02T18:13:48.459Z,100356.97
2023-02-02T18:16:16.881Z,100370.28
2023-02-02T18:18:45.798Z,100382.75
2023-02-02T18:21:14.570Z,100401.34
2023-02-02T18:23:42.957Z,100396.56
2023-02-02T18:26:13.854Z,100404.50
2023-02-02T18:28:43.887Z,100413.09
2023-02-02T18:31:15.220Z,100422.34
2023-02-02T18:33:44.509Z,100425.56
2023-02-02T18:36:15.805Z,100432.19
2023-02-02T18:38:46.226Z,100433.41
2023-02-02T18:41:15.291Z,100420.50
2023-02-02T18:43:46.286Z,100420.03
2023-02-02T18:46:16.117Z,100422.44
2023-02-02T18:48:44.892Z,100412.28
2023-02-02T18:51:16.083Z,100405.72
2023-02-02T18:53:45.248Z,100418.31
2023-02-02T18:56:15.185Z,100409.00
2023-02-02T18:58:43.332Z,100408.50
2023-02-02T19:01:16.259Z,100419.53
2023-02-02T19:03:49.278Z,100423.66
2023-02-02T19:06:35.962Z,100425.38
2023-02-02T19:09:05.660Z,100437.97
2023-02-02T19:11:39.153Z,100446.91
2023-02-02T19:14:14.856Z,100441.53
2023-02-02T19:16:46.292Z,100427.06
2023-02-02T19:19:24.155Z,100427.06
2023-02-02T19:21:56.490Z,100422.56
2023-02-02T19:24:27.653Z,100437.84
2023-02-02T19:26:56.661Z,100441.53
2023-02-02T19:29:27.140Z,100443.22
2023-02-02T19:32:03.497Z,100442.47
2023-02-02T19:34:34.393Z,100440.28
2023-02-02T19:37:03.479Z,100458.88
2023-02-02T19:39:32.531Z,100453.38
2023-02-02T19:42:02.671Z,100454.97
2023-02-02T19:44:34.073Z,100458.38
2023-02-02T19:47:20.396Z,100464.00
2023-02-02T19:49:48.549Z,100472.28
2023-02-02T19:52:22.858Z,100473.63
2023-02-02T19:54:51.437Z,100476.72
2023-02-02T19:57:23.016Z,100478.78
2023-02-02T19:59:52.591Z,100489.19
2023-02-02T20:02:49.833Z,100495.78
2023-02-02T20:05:20.401Z,100496.25
2023-02-02T20:07:49.568Z,100495.16
2023-02-02T20:10:22.497Z,100505.03
2023-02-02T20:12:51.724Z,100499.56
2023-02-02T20:15:27.197Z,100507.03
2023-02-02T20:17:58.994Z,100516.72
2023-02-02T20:20:29.785Z,100519.50
2023-02-02T20:22:58.696Z,100522.09
2023-02-02T20:25:29.203Z,100525.75
2023-02-02T20:27:59.546Z,100528.34
2023-02-02T20:30:30.867Z,100526.38
2023-02-02T20:33:03.048Z,100538.59
2023-02-02T20:35:37.185Z,100542.75
2023-02-02T20:38:22.740Z,100547.91
2023-02-02T20:40:52.125Z,100546.63
2023-02-02T20:43:20.734Z,100546.41
2023-02-02T20:45:49.798Z,100546.88
2023-02-02T20:48:19.568Z,100552.13
2023-02-02T20:50:48.150Z,100547.34
2023-02-02T20:53:22.404Z,100555.91
2023-02-02T20:55:51.293Z,100557.09
2023-02-02T20:58:21.821Z,100563.09
2023-02-02T21:00:50.182Z,100568.38
2023-02-02T21:03:20.254Z,100575.34
2023-02-02T21:05:48.606Z,100571.78
2023-02-02T21:08:17.015Z,100572.78
2023-02-02T21:10:45.200Z,100578.41
2023-02-02T21:13:13.323Z,100574.41
2023-02-02T21:15:41.419Z,100573.78
2023-02-02T21:18:09.637Z,100589.38
2023-02-02T21:20:39.112Z,100584.47
2023-02-02T21:23:09.835Z,100574.22
2023-02-02T21:25:37.943Z,100578.41
2023-02-02T21:28:06.176Z,100583.44
2023-02-02T21:30:34.374Z,100576.72
2023-02-02T21:33:02.690Z,100578.31
2023-02-02T21:35:30.921Z,100593.25
2023-02-02T21:38:05.917Z,100591.31
2023-02-02T21:40:34.703Z,100599.00
2023-02-02T21:43:12.483Z,100591.66
2023-02-02T21:45:40.644Z,100600.47
2023-02-02T21:48:23.989Z,100605.59
2023-02-02T21:50:52.087Z,100619.66
2023-02-02T21:53:23.050Z,100618.41
2023-02-02T21:55:55.636Z,100623.66
2023-02-02T21:58:26.012Z,100627.81
2023-02-02T22:00:55.236Z,100631.97
2023-02-02T22:03:34.025Z,100638.66
2023-02-02T22:06:26.041Z,100631.28
2023-02-02T22:09:02.166Z,100629.19
2023-02-02T22:11:37.082Z,100638.72
2023-02-02T22:14:16.574Z,100642.09
2023-02-02T22:16:50.257Z,100647.88
2023-02-02T22:19:30.746Z,100659.19
2023-02-02T22:22:16.088Z,100664.06
2023-02-02T22:24:46.808Z,100667.19
2023-02-02T22:27:26.181Z,100669.47
2023-02-02T22:29:59.333Z,100674.47
2023-02-02T22:32:27.594Z,100680.28
2023-02-02T22:34:55.739Z,100675.34
2023-02-02T22:37:23.756Z,100679.09
2023-02-02T22:39:53.340Z,100675.13
2023-02-02T22:42:21.463Z,100681.59
2023-02-02T22:44:49.665Z,100683.78
2023-02-02T22:47:17.741Z,100696.66
2023-02-02T22:49:45.831Z,100708.59
2023-02-02T22:52:13.966Z,100709.03
2023-02-02T22:54:42.054Z,100719.03
2023-02-02T22:57:11.478Z,100724.69
2023-02-02T22:59:39.500Z,100719.66
2023-02-02T23:02:07.804Z,100728.91
2023-02-02T23:04:35.881Z,100741.66
2023-02-02T23:07:04.117Z,100735.84
2023-02-02T23:09:35.660Z,100738.75
2023-02-02T23:12:03.793Z,100736.53
2023-02-02T23:14:33.227Z,100741.00
2023-02-02T23:17:01.283Z,100752.03
2023-02-02T23:19:29.406Z,100754.94
2023-02-02T23:21:57.986Z,100760.72
2023-02-02T23:24:26.141Z,100755.56
2023-02-02T23:26:54.221Z,100746.75
2023-02-02T23:29:22.298Z,100766.78
2023-02-02T23:31:51.784Z,100753.69
2023-02-02T23:34:19.906Z,100753.16
2023-02-02T23:36:48.025Z,100762.91
2023-02-02T23:39:16.100Z,100780.94
2023-02-02T23:41:44.217Z,100767.91
2023-02-02T23:44:12.357Z,100777.03
2023-02-02T23:46:41.353Z,100774.63
2023-02-02T23:49:11.374Z,100770.34
2023-02-02T23:51:39.716Z,100787.72
2023-02-02T23:54:08.048Z,100785.03
2023-02-02T23:56:36.226Z,100788.88
2023-02-02T23:59:04.566Z,100786.41
